sensor_id;sensor_type;location;lat;lon;timestamp;pressure;altitude;pressure_sealevel;temperature;humidity
6694;BME280;3384;42.628;23.380;2023-09-19T00:01:39;94594.47;;;17.14;100.00
6694;BME280;3384;42.628;23.380;2023-09-19T00:04:07;94588.09;;;17.63;100.00
6694;BME280;3384;42.628;23.380;2023-09-19T00:06:36;94598.50;;;17.41;100.00
6694;BME280;3384;42.628;23.380;2023-09-19T00:09:03;94596.88;;;17.60;100.00
6694;BME280;3384;42.628;23.380;2023-09-19T00:11:30;94596.13;;;17.39;100.00
6694;BME280;3384;42.628;23.380;2023-09-19T00:13:57;94595.28;;;17.27;100.00
6694;BME280;3384;42.628;23.380;2023-09-19T00:16:26;94598.41;;;17.37;100.00
6694;BME280;3384;42.628;23.380;2023-09-19T00:18:52;94585.19;;;17.15;100.00
6694;BME280;3384;42.628;23.380;2023-09-19T00:21:20;94586.88;;;16.87;100.00
6694;BME280;3384;42.628;23.380;2023-09-19T00:23:49;94587.63;;;17.29;100.00
6694;BME280;3384;42.628;23.380;2023-09-19T00:26:17;94592.03;;;16.80;100.00
6694;BME280;3384;42.628;23.380;2023-09-19T00:28:46;94592.09;;;16.72;100.00
6694;BME280;3384;42.628;23.380;2023-09-19T00:31:13;94590.25;;;17.05;100.00
6694;BME280;3384;42.628;23.380;2023-09-19T00:33:40;94592.44;;;16.91;100.00
6694;BME280;3384;42.628;23.380;2023-09-19T00:36:07;94587.44;;;16.81;100.00
6694;BME280;3384;42.628;23.380;2023-09-19T00:38:34;94580.13;;;16.81;100.00
6694;BME280;3384;42.628;23.380;2023-09-19T00:41:03;94591.03;;;17.05;100.00
6694;BME280;3384;42.628;23.380;2023-09-19T00:43:30;94584.13;;;17.28;100.00
6694;BME280;3384;42.628;23.380;2023-09-19T00:46:00;94593.69;;;16.93;100.00
6694;BME280;3384;42.628;23.380;2023-09-19T00:48:28;94574.22;;;16.79;100.00
6694;BME280;3384;42.628;23.380;2023-09-19T00:50:57;94577.00;;;16.50;100.00
6694;BME280;3384;42.628;23.380;2023-09-19T00:53:26;94568.53;;;16.93;100.00
6694;BME280;3384;42.628;23.380;2023-09-19T00:55:53;94557.88;;;17.08;100.00
6694;BME280;3384;42.628;23.380;2023-09-19T00:58:23;94568.81;;;16.59;100.00
6694;BME280;3384;42.628;23.380;2023-09-19T01:00:50;94579.56;;;16.47;100.00
6694;BME280;3384;42.628;23.380;2023-09-19T01:03:19;94584.13;;;16.75;100.00
6694;BME280;3384;42.628;23.380;2023-09-19T01:05:46;94590.97;;;16.52;100.00
6694;BME280;3384;42.628;23.380;2023-09-19T01:08:13;94568.75;;;16.67;100.00
6694;BME280;3384;42.628;23.380;2023-09-19T01:10:54;94560.56;;;16.55;100.00
6694;BME280;3384;42.628;23.380;2023-09-19T01:13:30;94587.16;;;16.24;100.00
6694;BME280;3384;42.628;23.380;2023-09-19T01:16:06;94577.00;;;16.50;100.00
6694;BME280;3384;42.628;23.380;2023-09-19T01:18:43;94576.00;;;16.55;100.00
6694;BME280;3384;42.628;23.380;2023-09-19T01:21:20;94567.47;;;16.65;100.00
6694;BME280;3384;42.628;23.380;2023-09-19T01:24:14;94579.19;;;16.57;100.00
6694;BME280;3384;42.628;23.380;2023-09-19T01:27:06;94574.34;;;16.62;100.00
6694;BME280;3384;42.628;23.380;2023-09-19T01:29:42;94580.16;;;16.52;100.00
6694;BME280;3384;42.628;23.380;2023-09-19T01:32:15;94578.94;;;16.41;100.00
6694;BME280;3384;42.628;23.380;2023-09-19T01:34:47;94578.13;;;16.40;100.00
6694;BME280;3384;42.628;23.380;2023-09-19T01:37:15;94577.34;;;16.40;100.00
6694;BME280;3384;42.628;23.380;2023-09-19T01:39:46;94584.72;;;16.31;100.00
6694;BME280;3384;42.628;23.380;2023-09-19T01:42:23;94570.25;;;16.56;100.00
6694;BME280;3384;42.628;23.380;2023-09-19T01:44:57;94561.81;;;16.58;100.00
6694;BME280;3384;42.628;23.380;2023-09-19T01:47:32;94567.28;;;16.49;100.00
6694;BME280;3384;42.628;23.380;2023-09-19T01:50:05;94574.09;;;16.26;100.00
6694;BME280;3384;42.628;23.380;2023-09-19T01:52:38;94579.25;;;16.19;100.00
6694;BME280;3384;42.628;23.380;2023-09-19T01:55:10;94586.75;;;16.13;100.00
6694;BME280;3384;42.628;23.380;2023-09-19T01:57:45;94572.72;;;16.20;100.00
6694;BME280;3384;42.628;23.380;2023-09-19T02:00:16;94579.78;;;16.33;100.00
6694;BME280;3384;42.628;23.380;2023-09-19T02:02:47;94587.81;;;16.21;100.00
6694;BME280;3384;42.628;23.380;2023-09-19T02:05:22;94574.19;;;16.38;100.00
6694;BME280;3384;42.628;23.380;2023-09-19T02:07:49;94591.66;;;16.40;100.00
6694;BME280;3384;42.628;23.380;2023-09-19T02:10:16;94594.66;;;16.18;100.00
6694;BME280;3384;42.628;23.380;2023-09-19T02:12:43;94606.94;;;16.45;100.00
6694;BME280;3384;42.628;23.380;2023-09-19T02:15:12;94585.84;;;16.59;100.00
6694;BME280;3384;42.628;23.380;2023-09-19T02:17:41;94592.91;;;16.52;100.00
6694;BME280;3384;42.628;23.380;2023-09-19T02:20:11;94592.19;;;16.34;100.00
6694;BME280;3384;42.628;23.380;2023-09-19T02:22:40;94581.41;;;16.25;100.00
6694;BME280;3384;42.628;23.380;2023-09-19T02:25:08;94584.19;;;16.37;100.00
6694;BME280;3384;42.628;23.380;2023-09-19T02:27:35;94589.97;;;16.36;100.00
6694;BME280;3384;42.628;23.380;2023-09-19T02:30:03;94588.06;;;16.28;100.00
6694;BME280;3384;42.628;23.380;2023-09-19T02:32:31;94583.91;;;16.30;100.00
6694;BME280;3384;42.628;23.380;2023-09-19T02:35:01;94585.66;;;16.06;100.00
6694;BME280;3384;42.628;23.380;2023-09-19T02:37:31;94563.94;;;15.94;100.00
6694;BME280;3384;42.628;23.380;2023-09-19T02:40:00;94562.53;;;16.17;100.00
6694;BME280;3384;42.628;23.380;2023-09-19T02:42:44;94572.00;;;16.31;100.00
6694;BME280;3384;42.628;23.380;2023-09-19T02:45:14;94555.19;;;16.26;100.00
6694;BME280;3384;42.628;23.380;2023-09-19T02:47:43;94568.97;;;16.04;100.00
6694;BME280;3384;42.628;23.380;2023-09-19T02:50:10;94556.53;;;16.11;100.00
6694;BME280;3384;42.628;23.380;2023-09-19T02:52:41;94558.16;;;15.75;100.00
6694;BME280;3384;42.628;23.380;2023-09-19T02:55:10;94555.97;;;15.97;100.00
6694;BME280;3384;42.628;23.380;2023-09-19T02:57:38;94550.63;;;15.89;100.00
6694;BME280;3384;42.628;23.380;2023-09-19T03:00:07;94557.28;;;15.91;100.00
6694;BME280;3384;42.628;23.380;2023-09-19T03:02:35;94536.69;;;15.70;100.00
6694;BME280;3384;42.628;23.380;2023-09-19T03:05:04;94529.03;;;15.51;100.00
6694;BME280;3384;42.628;23.380;2023-09-19T03:07:33;94532.53;;;15.81;100.00
6694;BME280;3384;42.628;23.380;2023-09-19T03:10:01;94534.22;;;15.56;100.00
6694;BME280;3384;42.628;23.380;2023-09-19T03:12:29;94533.78;;;15.83;100.00
6694;BME280;3384;42.628;23.380;2023-09-19T03:14:55;94523.91;;;15.58;100.00
6694;BME280;3384;42.628;23.380;2023-09-19T03:17:25;94526.06;;;15.36;100.00
6694;BME280;3384;42.628;23.380;2023-09-19T03:19:52;94538.09;;;15.30;100.00
6694;BME280;3384;42.628;23.380;2023-09-19T03:22:20;94533.44;;;15.56;100.00
6694;BME280;3384;42.628;23.380;2023-09-19T03:24:47;94537.72;;;15.57;100.00
6694;BME280;3384;42.628;23.380;2023-09-19T03:27:16;94538.66;;;15.90;100.00
6694;BME280;3384;42.628;23.380;2023-09-19T03:29:43;94531.28;;;15.70;100.00
6694;BME280;3384;42.628;23.380;2023-09-19T03:32:10;94538.69;;;15.52;100.00
6694;BME280;3384;42.628;23.380;2023-09-19T03:34:37;94534.59;;;15.46;100.00
6694;BME280;3384;42.628;23.380;2023-09-19T03:37:06;94552.38;;;15.47;100.00
6694;BME280;3384;42.628;23.380;2023-09-19T03:39:34;94538.75;;;15.73;100.00
6694;BME280;3384;42.628;23.380;2023-09-19T03:42:01;94528.72;;;15.82;100.00
6694;BME280;3384;42.628;23.380;2023-09-19T03:44:30;94534.44;;;15.80;100.00
6694;BME280;3384;42.628;23.380;2023-09-19T03:46:57;94539.16;;;15.54;100.00
6694;BME280;3384;42.628;23.380;2023-09-19T03:49:24;94540.50;;;15.40;100.00
6694;BME280;3384;42.628;23.380;2023-09-19T03:51:51;94551.72;;;15.50;100.00
6694;BME280;3384;42.628;23.380;2023-09-19T03:54:18;94529.50;;;15.45;100.00
6694;BME280;3384;42.628;23.380;2023-09-19T03:56:45;94566.34;;;15.87;100.00
6694;BME280;3384;42.628;23.380;2023-09-19T03:59:12;94548.69;;;15.52;100.00
6694;BME280;3384;42.628;23.380;2023-09-19T04:01:40;94557.72;;;15.64;100.00
6694;BME280;3384;42.628;23.380;2023-09-19T04:04:08;94562.06;;;15.86;100.00
6694;BME280;3384;42.628;23.380;2023-09-19T04:06:35;94565.00;;;16.01;100.00
6694;BME280;3384;42.628;23.380;2023-09-19T04:09:03;94560.38;;;16.10;100.00
6694;BME280;3384;42.628;23.380;2023-09-19T04:11:32;94565.69;;;15.90;100.00
6694;BME280;3384;42.628;23.380;2023-09-19T04:14:02;94564.50;;;16.08;100.00
6694;BME280;3384;42.628;23.380;2023-09-19T04:16:29;94564.44;;;15.87;100.00
6694;BME280;3384;42.628;23.380;2023-09-19T04:18:57;94566.81;;;15.89;100.00
6694;BME280;3384;42.628;23.380;2023-09-19T04:21:24;94562.34;;;15.93;100.00
6694;BME280;3384;42.628;23.380;2023-09-19T04:23:52;94574.56;;;15.99;100.00
6694;BME280;3384;42.628;23.380;2023-09-19T04:26:18;94565.94;;;15.76;100.00
6694;BME280;3384;42.628;23.380;2023-09-19T04:28:47;94572.06;;;15.56;100.00
6694;BME280;3384;42.628;23.380;2023-09-19T04:31:13;94576.88;;;15.42;100.00
6694;BME280;3384;42.628;23.380;2023-09-19T04:33:42;94574.34;;;15.29;100.00
6694;BME280;3384;42.628;23.380;2023-09-19T04:36:10;94581.38;;;14.96;100.00
6694;BME280;3384;42.628;23.380;2023-09-19T04:38:39;94590.38;;;15.25;100.00
6694;BME280;3384;42.628;23.380;2023-09-19T04:41:06;94566.41;;;15.70;100.00
6694;BME280;3384;42.628;23.380;2023-09-19T04:43:33;94555.44;;;15.75;100.00
6694;BME280;3384;42.628;23.380;2023-09-19T04:46:00;94576.91;;;16.09;100.00
6694;BME280;3384;42.628;23.380;2023-09-19T04:48:28;94569.38;;;15.85;100.00
6694;BME280;3384;42.628;23.380;2023-09-19T04:50:55;94563.28;;;15.97;100.00
6694;BME280;3384;42.628;23.380;2023-09-19T04:53:26;94564.72;;;16.23;100.00
6694;BME280;3384;42.628;23.380;2023-09-19T04:55:53;94574.09;;;16.26;100.00
6694;BME280;3384;42.628;23.380;2023-09-19T04:58:23;94553.66;;;16.08;100.00
6694;BME280;3384;42.628;23.380;2023-09-19T05:00:59;94559.25;;;16.32;100.00
6694;BME280;3384;42.628;23.380;2023-09-19T05:03:28;94560.66;;;16.38;100.00
6694;BME280;3384;42.628;23.380;2023-09-19T05:05:58;94555.13;;;16.34;100.00
6694;BME280;3384;42.628;23.380;2023-09-19T05:08:29;94542.84;;;16.08;100.00
6694;BME280;3384;42.628;23.380;2023-09-19T05:10:56;94541.44;;;16.10;100.00
6694;BME280;3384;42.628;23.380;2023-09-19T05:13:23;94540.97;;;16.08;100.00
6694;BME280;3384;42.628;23.380;2023-09-19T05:15:50;94536.69;;;16.28;100.00
6694;BME280;3384;42.628;23.380;2023-09-19T05:18:17;94547.66;;;16.02;100.00
6694;BME280;3384;42.628;23.380;2023-09-19T05:20:47;94541.00;;;16.29;100.00
6694;BME280;3384;42.628;23.380;2023-09-19T05:23:15;94547.75;;;16.14;100.00
6694;BME280;3384;42.628;23.380;2023-09-19T05:25:45;94547.44;;;16.16;100.00
6694;BME280;3384;42.628;23.380;2023-09-19T05:28:12;94553.16;;;16.43;100.00
6694;BME280;3384;42.628;23.380;2023-09-19T05:30:42;94547.94;;;16.59;100.00
6694;BME280;3384;42.628;23.380;2023-09-19T05:45:19;94541.41;;;16.81;100.00
6694;BME280;3384;42.628;23.380;2023-09-19T05:47:50;94531.53;;;16.64;100.00
6694;BME280;3384;42.628;23.380;2023-09-19T05:50:21;94537.25;;;16.83;100.00
6694;BME280;3384;42.628;23.380;2023-09-19T05:52:59;94530.94;;;16.91;100.00
6694;BME280;3384;42.628;23.380;2023-09-19T05:58:01;94520.03;;;17.00;100.00
6694;BME280;3384;42.628;23.380;2023-09-19T06:00:31;94512.22;;;16.86;100.00
6694;BME280;3384;42.628;23.380;2023-09-19T06:17:47;94512.94;;;16.95;100.00
6694;BME280;3384;42.628;23.380;2023-09-19T06:20:17;94510.31;;;17.19;100.00
6694;BME280;3384;42.628;23.380;2023-09-19T06:22:45;94510.09;;;17.36;100.00
6694;BME280;3384;42.628;23.380;2023-09-19T06:25:16;94511.53;;;17.22;100.00
6694;BME280;3384;42.628;23.380;2023-09-19T06:27:46;94529.75;;;17.33;100.00
6694;BME280;3384;42.628;23.380;2023-09-19T06:30:14;94534.66;;;17.52;100.00
6694;BME280;3384;42.628;23.380;2023-09-19T06:32:43;94518.41;;;17.88;100.00
6694;BME280;3384;42.628;23.380;2023-09-19T06:35:14;94502.09;;;17.40;100.00
6694;BME280;3384;42.628;23.380;2023-09-19T06:37:42;94512.56;;;17.74;100.00
6694;BME280;3384;42.628;23.380;2023-09-19T06:40:11;94502.13;;;17.52;100.00
6694;BME280;3384;42.628;23.380;2023-09-19T06:42:41;94505.63;;;17.52;100.00
6694;BME280;3384;42.628;23.380;2023-09-19T06:45:12;94503.41;;;17.78;100.00
6694;BME280;3384;42.628;23.380;2023-09-19T06:47:44;94498.31;;;18.01;100.00
6694;BME280;3384;42.628;23.380;2023-09-19T06:50:14;94507.91;;;17.74;100.00
6694;BME280;3384;42.628;23.380;2023-09-19T06:52:45;94516.75;;;17.95;100.00
6694;BME280;3384;42.628;23.380;2023-09-19T06:55:14;94508.56;;;18.19;100.00
6694;BME280;3384;42.628;23.380;2023-09-19T06:57:41;94529.28;;;17.88;100.00
6694;BME280;3384;42.628;23.380;2023-09-19T07:00:12;94507.22;;;17.77;100.00
6694;BME280;3384;42.628;23.380;2023-09-19T07:02:43;94510.06;;;17.57;100.00
6694;BME280;3384;42.628;23.380;2023-09-19T07:05:14;94520.09;;;17.56;100.00
6694;BME280;3384;42.628;23.380;2023-09-19T07:07:42;94518.75;;;17.86;100.00
6694;BME280;3384;42.628;23.380;2023-09-19T07:10:10;94502.94;;;17.88;100.00
6694;BME280;3384;42.628;23.380;2023-09-19T07:12:38;94522.16;;;17.95;100.00
6694;BME280;3384;42.628;23.380;2023-09-19T07:15:07;94520.13;;;17.92;100.00
6694;BME280;3384;42.628;23.380;2023-09-19T07:17:33;94520.34;;;17.99;100.00
6694;BME280;3384;42.628;23.380;2023-09-19T07:20:00;94531.19;;;17.87;100.00
6694;BME280;3384;42.628;23.380;2023-09-19T07:22:34;94525.09;;;18.02;100.00
6694;BME280;3384;42.628;23.380;2023-09-19T07:25:05;94513.19;;;18.07;100.00
6694;BME280;3384;42.628;23.380;2023-09-19T07:27:32;94528.25;;;18.16;100.00
6694;BME280;3384;42.628;23.380;2023-09-19T07:29:59;94531.81;;;18.56;100.00
6694;BME280;3384;42.628;23.380;2023-09-19T07:32:26;94512.25;;;18.90;100.00
6694;BME280;3384;42.628;23.380;2023-09-19T07:34:54;94516.94;;;18.38;100.00
6694;BME280;3384;42.628;23.380;2023-09-19T07:37:21;94507.56;;;18.36;100.00
6694;BME280;3384;42.628;23.380;2023-09-19T07:39:52;94515.34;;;18.25;100.00
6694;BME280;3384;42.628;23.380;2023-09-19T07:42:19;94523.50;;;18.13;100.00
6694;BME280;3384;42.628;23.380;2023-09-19T07:44:46;94526.41;;;18.32;100.00
6694;BME280;3384;42.628;23.380;2023-09-19T07:47:16;94528.66;;;18.54;100.00
6694;BME280;3384;42.628;23.380;2023-09-19T07:49:47;94524.69;;;18.52;100.00
6694;BME280;3384;42.628;23.380;2023-09-19T07:52:14;94517.38;;;18.40;100.00
6694;BME280;3384;42.628;23.380;2023-09-19T07:54:41;94531.16;;;18.47;100.00
6694;BME280;3384;42.628;23.380;2023-09-19T07:57:13;94528.78;;;18.34;100.00
6694;BME280;3384;42.628;23.380;2023-09-19T07:59:40;94528.97;;;18.65;100.00
6694;BME280;3384;42.628;23.380;2023-09-19T08:02:07;94550.06;;;18.83;100.00
6694;BME280;3384;42.628;23.380;2023-09-19T08:04:41;94524.47;;;18.84;100.00
6694;BME280;3384;42.628;23.380;2023-09-19T08:07:08;94525.41;;;18.76;100.00
6694;BME280;3384;42.628;23.380;2023-09-19T08:09:36;94533.50;;;18.88;100.00
6694;BME280;3384;42.628;23.380;2023-09-19T08:12:04;94517.72;;;18.78;100.00
6694;BME280;3384;42.628;23.380;2023-09-19T08:14:35;94523.38;;;18.85;100.00
6694;BME280;3384;42.628;23.380;2023-09-19T08:17:02;94512.84;;;18.84;100.00
6694;BME280;3384;42.628;23.380;2023-09-19T08:19:30;94517.00;;;18.93;100.00
6694;BME280;3384;42.628;23.380;2023-09-19T08:21:58;94512.03;;;19.11;100.00
6694;BME280;3384;42.628;23.380;2023-09-19T08:24:25;94517.00;;;18.93;100.00
6694;BME280;3384;42.628;23.380;2023-09-19T08:26:54;94491.75;;;18.93;100.00
6694;BME280;3384;42.628;23.380;2023-09-19T08:29:22;94507.31;;;19.08;100.00
6694;BME280;3384;42.628;23.380;2023-09-19T08:31:54;94497.84;;;19.18;100.00
6694;BME280;3384;42.628;23.380;2023-09-19T08:34:22;94475.75;;;19.03;100.00
6694;BME280;3384;42.628;23.380;2023-09-19T08:36:50;94506.53;;;19.23;100.00
6694;BME280;3384;42.628;23.380;2023-09-19T08:39:18;94483.63;;;19.52;100.00
6694;BME280;3384;42.628;23.380;2023-09-19T08:41:45;94499.94;;;19.36;100.00
6694;BME280;3384;42.628;23.380;2023-09-19T08:44:12;94494.88;;;19.23;100.00
6694;BME280;3384;42.628;23.380;2023-09-19T08:46:41;94500.19;;;19.47;100.00
6694;BME280;3384;42.628;23.380;2023-09-19T08:49:16;94500.00;;;19.40;100.00
6694;BME280;3384;42.628;23.380;2023-09-19T08:51:53;94508.09;;;19.52;100.00
6694;BME280;3384;42.628;23.380;2023-09-19T08:54:25;94482.56;;;19.72;100.00
6694;BME280;3384;42.628;23.380;2023-09-19T08:56:58;94498.63;;;19.46;100.00
6694;BME280;3384;42.628;23.380;2023-09-19T08:59:28;94495.47;;;19.59;100.00
6694;BME280;3384;42.628;23.380;2023-09-19T09:01:57;94480.81;;;19.79;100.00
6694;BME280;3384;42.628;23.380;2023-09-19T09:04:26;94495.03;;;20.04;100.00
6694;BME280;3384;42.628;23.380;2023-09-19T09:06:54;94484.56;;;20.06;100.00
6694;BME280;3384;42.628;23.380;2023-09-19T09:09:23;94478.94;;;19.99;100.00
6694;BME280;3384;42.628;23.380;2023-09-19T09:11:51;94476.88;;;19.77;100.00
6694;BME280;3384;42.628;23.380;2023-09-19T09:14:19;94474.53;;;20.25;100.00
6694;BME280;3384;42.628;23.380;2023-09-19T09:16:47;94482.81;;;20.13;100.00
6694;BME280;3384;42.628;23.380;2023-09-19T09:19:15;94472.00;;;20.17;100.00
6694;BME280;3384;42.628;23.380;2023-09-19T09:21:51;94459.28;;;20.21;100.00
6694;BME280;3384;42.628;23.380;2023-09-19T09:24:27;94467.81;;;20.19;100.00
6694;BME280;3384;42.628;23.380;2023-09-19T09:26:56;94469.22;;;20.13;100.00
6694;BME280;3384;42.628;23.380;2023-09-19T09:29:40;94456.44;;;20.33;100.00
6694;BME280;3384;42.628;23.380;2023-09-19T09:32:20;94461.72;;;20.45;100.00
6694;BME280;3384;42.628;23.380;2023-09-19T09:34:50;94463.69;;;20.44;100.00
6694;BME280;3384;42.628;23.380;2023-09-19T09:37:20;94457.78;;;20.42;100.00
6694;BME280;3384;42.628;23.380;2023-09-19T09:39:51;94450.00;;;20.60;100.00
6694;BME280;3384;42.628;23.380;2023-09-19T09:42:29;94474.56;;;20.63;100.00
6694;BME280;3384;42.628;23.380;2023-09-19T09:45:22;94433.94;;;20.74;100.00
6694;BME280;3384;42.628;23.380;2023-09-19T09:47:54;94454.25;;;20.57;100.00
6694;BME280;3384;42.628;23.380;2023-09-19T09:50:28;94437.09;;;20.57;100.00
6694;BME280;3384;42.628;23.380;2023-09-19T09:53:19;94450.28;;;20.74;100.00
6694;BME280;3384;42.628;23.380;2023-09-19T09:56:00;94444.97;;;20.81;100.00
6694;BME280;3384;42.628;23.380;2023-09-19T09:58:30;94423.16;;;21.19;100.00
6694;BME280;3384;42.628;23.380;2023-09-19T10:00:59;94420.94;;;21.05;100.00
6694;BME280;3384;42.628;23.380;2023-09-19T10:03:35;94428.03;;;21.10;100.00
6694;BME280;3384;42.628;23.380;2023-09-19T10:06:07;94411.22;;;21.27;100.00
6694;BME280;3384;42.628;23.380;2023-09-19T10:09:05;94424.31;;;21.40;100.00
6694;BME280;3384;42.628;23.380;2023-09-19T10:11:41;94422.78;;;21.66;100.00
6694;BME280;3384;42.628;23.380;2023-09-19T10:14:10;94433.13;;;22.02;100.00
6694;BME280;3384;42.628;23.380;2023-09-19T10:16:41;94414.06;;;21.56;100.00
6694;BME280;3384;42.628;23.380;2023-09-19T10:21:42;94408.91;;;21.51;100.00
6694;BME280;3384;42.628;23.380;2023-09-19T10:24:13;94418.19;;;21.47;100.00
6694;BME280;3384;42.628;23.380;2023-09-19T10:26:43;94408.78;;;21.90;100.00
6694;BME280;3384;42.628;23.380;2023-09-19T10:29:13;94410.44;;;21.98;100.00
6694;BME280;3384;42.628;23.380;2023-09-19T10:31:44;94419.34;;;21.95;100.00
6694;BME280;3384;42.628;23.380;2023-09-19T10:34:14;94429.06;;;21.92;100.00
6694;BME280;3384;42.628;23.380;2023-09-19T10:36:45;94414.66;;;22.21;100.00
6694;BME280;3384;42.628;23.380;2023-09-19T10:39:16;94398.47;;;21.57;100.00
6694;BME280;3384;42.628;23.380;2023-09-19T10:41:51;94407.44;;;21.57;100.00
6694;BME280;3384;42.628;23.380;2023-09-19T10:44:23;94402.63;;;21.96;100.00
6694;BME280;3384;42.628;23.380;2023-09-19T10:46:54;94419.06;;;22.00;100.00
6694;BME280;3384;42.628;23.380;2023-09-19T10:49:22;94391.13;;;22.10;100.00
6694;BME280;3384;42.628;23.380;2023-09-19T10:51:53;94409.13;;;22.14;100.00
6694;BME280;3384;42.628;23.380;2023-09-19T10:54:27;94400.66;;;22.23;100.00
6694;BME280;3384;42.628;23.380;2023-09-19T10:56:56;94388.97;;;22.22;100.00
6694;BME280;3384;42.628;23.380;2023-09-19T10:59:26;94408.13;;;22.55;100.00
6694;BME280;3384;42.628;23.380;2023-09-19T11:02:00;94396.59;;;22.10;100.00
6694;BME280;3384;42.628;23.380;2023-09-19T11:04:42;94389.59;;;21.86;100.00
6694;BME280;3384;42.628;23.380;2023-09-19T11:07:13;94387.97;;;22.08;100.00
6694;BME280;3384;42.628;23.380;2023-09-19T11:09:47;94395.53;;;22.47;100.00
6694;BME280;3384;42.628;23.380;2023-09-19T11:12:48;94385.59;;;22.06;100.00
6694;BME280;3384;42.628;23.380;2023-09-19T11:18:53;94382.88;;;22.36;100.00
6694;BME280;3384;42.628;23.380;2023-09-19T11:21:52;94376.53;;;22.28;100.00
6694;BME280;3384;42.628;23.380;2023-09-19T11:24:28;94361.19;;;22.46;100.00
6694;BME280;3384;42.628;23.380;2023-09-19T11:27:13;94365.59;;;22.54;100.00
6694;BME280;3384;42.628;23.380;2023-09-19T11:29:43;94372.09;;;22.76;100.00
6694;BME280;3384;42.628;23.380;2023-09-19T11:32:10;94357.66;;;22.79;100.00
6694;BME280;3384;42.628;23.380;2023-09-19T11:34:45;94355.84;;;22.53;100.00
6694;BME280;3384;42.628;23.380;2023-09-19T11:40:45;94349.59;;;22.56;100.00
6694;BME280;3384;42.628;23.380;2023-09-19T11:43:34;94348.28;;;22.47;100.00
6694;BME280;3384;42.628;23.380;2023-09-19T11:46:05;94354.75;;;23.01;100.00
6694;BME280;3384;42.628;23.380;2023-09-19T11:48:32;94336.84;;;23.04;100.00
6694;BME280;3384;42.628;23.380;2023-09-19T11:51:10;94330.06;;;23.27;98.68
6694;BME280;3384;42.628;23.380;2023-09-19T11:53:42;94335.53;;;22.91;100.00
6694;BME280;3384;42.628;23.380;2023-09-19T11:56:10;94324.03;;;22.75;100.00
6694;BME280;3384;42.628;23.380;2023-09-19T11:58:41;94316.38;;;23.27;98.15
6694;BME280;3384;42.628;23.380;2023-09-19T12:01:10;94329.03;;;23.46;97.03
6694;BME280;3384;42.628;23.380;2023-09-19T12:03:42;94314.63;;;22.69;100.00
6694;BME280;3384;42.628;23.380;2023-09-19T12:06:14;94324.56;;;22.87;100.00
6694;BME280;3384;42.628;23.380;2023-09-19T12:08:42;94336.78;;;23.00;100.00
6694;BME280;3384;42.628;23.380;2023-09-19T12:11:13;94317.94;;;22.88;100.00
6694;BME280;3384;42.628;23.380;2023-09-19T12:13:43;94332.44;;;22.92;100.00
6694;BME280;3384;42.628;23.380;2023-09-19T12:16:13;94315.97;;;22.89;100.00
6694;BME280;3384;42.628;23.380;2023-09-19T12:18:42;94299.56;;;22.85;100.00
6694;BME280;3384;42.628;23.380;2023-09-19T12:21:25;94298.59;;;23.07;100.00
6694;BME280;3384;42.628;23.380;2023-09-19T12:24:09;94316.22;;;23.13;100.00
6694;BME280;3384;42.628;23.380;2023-09-19T12:26:42;94315.91;;;22.78;100.00
6694;BME280;3384;42.628;23.380;2023-09-19T12:29:17;94295.91;;;23.11;100.00
6694;BME280;3384;42.628;23.380;2023-09-19T12:31:54;94300.75;;;23.28;98.95
6694;BME280;3384;42.628;23.380;2023-09-19T12:34:27;94289.50;;;22.96;100.00
6694;BME280;3384;42.628;23.380;2023-09-19T12:37:08;94303.59;;;22.98;100.00
6694;BME280;3384;42.628;23.380;2023-09-19T12:39:39;94287.66;;;23.07;100.00
6694;BME280;3384;42.628;23.380;2023-09-19T12:42:08;94283.56;;;23.27;98.65
6694;BME280;3384;42.628;23.380;2023-09-19T12:44:40;94280.00;;;23.23;100.00
6694;BME280;3384;42.628;23.380;2023-09-19T12:47:13;94282.75;;;23.23;99.63
6694;BME280;3384;42.628;23.380;2023-09-19T12:50:09;94271.97;;;23.48;96.50
6694;BME280;3384;42.628;23.380;2023-09-19T12:52:45;94275.63;;;23.69;95.50
6694;BME280;3384;42.628;23.380;2023-09-19T12:55:21;94278.22;;;23.48;96.86
6694;BME280;3384;42.628;23.380;2023-09-19T12:58:09;94278.88;;;23.31;99.00
6694;BME280;3384;42.628;23.380;2023-09-19T13:00:40;94279.94;;;23.20;100.00
6694;BME280;3384;42.628;23.380;2023-09-19T13:03:15;94283.66;;;23.41;98.03
6694;BME280;3384;42.628;23.380;2023-09-19T13:05:51;94275.44;;;23.41;96.19
6694;BME280;3384;42.628;23.380;2023-09-19T13:08:21;94266.19;;;23.63;94.72
6694;BME280;3384;42.628;23.380;2023-09-19T13:11:06;94252.94;;;23.69;94.36
6694;BME280;3384;42.628;23.380;2023-09-19T13:13:36;94276.38;;;23.63;96.31
6694;BME280;3384;42.628;23.380;2023-09-19T13:16:05;94267.50;;;23.80;95.14
6694;BME280;3384;42.628;23.380;2023-09-19T13:18:48;94269.31;;;23.58;97.47
6694;BME280;3384;42.628;23.380;2023-09-19T13:21:27;94244.97;;;23.43;98.27
6694;BME280;3384;42.628;23.380;2023-09-19T13:23:55;94245.47;;;23.59;96.58
6694;BME280;3384;42.628;23.380;2023-09-19T13:26:25;94257.75;;;23.89;93.58
6694;BME280;3384;42.628;23.380;2023-09-19T13:28:53;94245.63;;;23.90;94.26
6694;BME280;3384;42.628;23.380;2023-09-19T13:31:21;94228.72;;;23.67;97.64
6694;BME280;3384;42.628;23.380;2023-09-19T13:33:49;94243.28;;;23.85;97.02
6694;BME280;3384;42.628;23.380;2023-09-19T13:36:17;94226.47;;;23.87;95.94
6694;BME280;3384;42.628;23.380;2023-09-19T13:38:47;94222.22;;;24.00;96.23
6694;BME280;3384;42.628;23.380;2023-09-19T13:41:15;94223.72;;;23.87;96.60
6694;BME280;3384;42.628;23.380;2023-09-19T13:43:42;94225.28;;;23.88;93.92
6694;BME280;3384;42.628;23.380;2023-09-19T13:46:14;94247.69;;;24.08;92.63
6694;BME280;3384;42.628;23.380;2023-09-19T13:48:44;94227.00;;;24.17;94.29
6694;BME280;3384;42.628;23.380;2023-09-19T13:51:11;94232.91;;;24.33;94.15
6694;BME280;3384;42.628;23.380;2023-09-19T13:53:38;94229.75;;;24.21;95.10
6694;BME280;3384;42.628;23.380;2023-09-19T13:56:05;94232.91;;;24.30;92.56
6694;BME280;3384;42.628;23.380;2023-09-19T13:58:33;94228.22;;;24.34;89.05
6694;BME280;3384;42.628;23.380;2023-09-19T14:01:00;94225.44;;;24.20;89.46